CheckWX is a tool to help pilots better visualize weather data.  It is not intended as a substitute for an official pre-flight weather briefing.

22:15:22 UTC

EDDH TAF
Hamburg Airport
Hamburg, Germany
TAF EDDH 251700Z 2518/2624 35008KT 9999 SCT035 BECMG 2518/2520 29006KT PROB30 TEMPO 2523/2608 BKN008 BECMG 2607/2609 31012KT TEMPO 2609/2617 31015G25KT BECMG 2616/2619 29006KT BKN012 PROB30 TEMPO 2616/2624 4000 -RADZ BECMG 2619/2622 BKN006

Mar-25@
18:00 UTC

Mar-25 @ 18:00 UTC

Mar-27@
00:00 UTC

Mar-27 @ 00:00 UTC

TAF EDDH 251700Z 2518/2624 35008KT 9999 SCT035
Wind
  • 350° at 8 KTS
Cloud Levels
  • Scattered at 3,500' AGL

Mar-25@
18:00 UTC

Mar-25 @ 18:00 UTC

Mar-26@
07:00 UTC

Mar-26 @ 07:00 UTC

BECMG 2518/2520 29006KT

Becoming

Becoming Conditions expected by Mon, Mar 25, 2019 @ 20:00 UTC

Wind
  • 290° at 6 KTS
Cloud Levels
  • Scattered at 3,500' AGL

Mar-25@
23:00 UTC

Mar-25 @ 23:00 UTC

Mar-26@
08:00 UTC

Mar-26 @ 08:00 UTC

PROB30 TEMPO 2523/2608 BKN008

Temporary - 30% Likelihood

Temporary - 30% Likelihood during this time.

Cloud Levels
  • Broken at 800' AGL

Mar-26@
07:00 UTC

Mar-26 @ 07:00 UTC

Mar-26@
16:00 UTC

Mar-26 @ 16:00 UTC

BECMG 2607/2609 31012KT

Becoming

Becoming Conditions expected by Tue, Mar 26, 2019 @ 09:00 UTC

Wind
  • 310° at 12 KTS
Cloud Levels
  • Scattered at 3,500' AGL

Mar-26@
09:00 UTC

Mar-26 @ 09:00 UTC

Mar-26@
17:00 UTC

Mar-26 @ 17:00 UTC

TEMPO 2609/2617 31015G25KT

Temporary

Temporary Changes expected for less than half the time period

Wind
  • 310° at 15 KTS
  • {Gusting to 25 KTS

Mar-26@
16:00 UTC

Mar-26 @ 16:00 UTC

Mar-26@
19:00 UTC

Mar-26 @ 19:00 UTC

BECMG 2616/2619 29006KT BKN012

Becoming

Becoming Conditions expected by Tue, Mar 26, 2019 @ 19:00 UTC

Wind
  • 290° at 6 KTS
Cloud Levels
  • Broken at 1,200' AGL

Mar-26@
16:00 UTC

Mar-26 @ 16:00 UTC

Mar-27@
00:00 UTC

Mar-27 @ 00:00 UTC

PROB30 TEMPO 2616/2624 4000 -RADZ

Temporary - 30% Likelihood

Temporary - 30% Likelihood during this time.

Conditions
Light Rain, Light Drizzle

Mar-26@
19:00 UTC

Mar-26 @ 19:00 UTC

Mar-27@
00:00 UTC

Mar-27 @ 00:00 UTC

BECMG 2619/2622 BKN006

Becoming

Becoming Conditions expected by Tue, Mar 26, 2019 @ 22:00 UTC

Wind
  • 290° at 6 KTS
Cloud Levels
  • Broken at 600' AGL